Time;durP1;ratioP1;P1;durP2;ratioP2;P2;SDS_P1;SDS_P2;PMS_P1;PMS_P2;Temp;Humidity;BMP_temperature;BMP_pressure;BME280_temperature;BME280_humidity;BME280_pressure;Samples;Min_cycle;Max_cycle;Signal;HPM_P1;HPM_P2
2021/05/31 00:02:19;;;;;;;5.03;3.57;;;;;;;;;;5076109;28;20484;-71
2021/05/31 00:04:45;;;;;;;7.73;4.43;;;;;;;;;;5092264;28;20475;-70
2021/05/31 00:07:17;;;;;;;5.00;3.70;;;;;;;;;;5086084;28;20498;-70
2021/05/31 00:09:43;;;;;;;6.07;4.00;;;;;;;;;;5081325;28;20444;-70
2021/05/31 00:12:11;;;;;;;8.40;3.70;;;;;;;;;;5081109;28;20456;-70
2021/05/31 00:14:37;;;;;;;6.80;4.10;;;;;;;;;;5077138;28;20918;-71
2021/05/31 00:17:04;;;;;;;4.50;4.00;;;;;;;;;;5076640;28;20521;-71
2021/05/31 00:19:30;;;;;;;5.47;3.60;;;;;;;;;;5080372;28;20433;-71
2021/05/31 00:21:56;;;;;;;5.47;3.87;;;;;;;;;;5071900;28;20503;-71
2021/05/31 00:24:22;;;;;;;7.83;4.70;;;;;;;;;;5081763;28;20448;-71
2021/05/31 00:26:48;;;;;;;9.27;4.50;;;;;;;;;;5088105;28;20440;-70
2021/05/31 00:29:16;;;;;;;5.20;3.53;;;;;;;;;;5081211;28;20786;-70
2021/05/31 00:31:42;;;;;;;6.60;4.60;;;;;;;;;;5091464;28;20457;-70
2021/05/31 00:34:08;;;;;;;10.53;5.90;;;;;;;;;;5083196;28;20444;-70
2021/05/31 00:36:34;;;;;;;9.33;4.87;;;;;;;;;;5083015;28;20433;-70
2021/05/31 00:39:00;;;;;;;5.23;4.43;;;;;;;;;;5082494;28;20986;-70
2021/05/31 00:41:26;;;;;;;5.77;4.00;;;;;;;;;;5085077;28;20466;-70
2021/05/31 00:43:52;;;;;;;6.27;3.90;;;;;;;;;;5095042;28;20540;-71
2021/05/31 00:46:18;;;;;;;6.80;4.20;;;;;;;;;;5091080;28;20450;-70
2021/05/31 00:48:44;;;;;;;7.83;3.73;;;;;;;;;;5075663;28;20559;-70
2021/05/31 00:51:11;;;;;;;5.40;3.53;;;;;;;;;;5074912;28;20444;-71
2021/05/31 00:53:38;;;;;;;6.37;4.10;;;;;;;;;;5099127;28;20527;-70
2021/05/31 00:56:04;;;;;;;8.70;4.90;;;;;;;;;;5101001;28;20436;-70
2021/05/31 00:58:31;;;;;;;11.63;4.27;;;;;;;;;;5089587;28;20524;-70
2021/05/31 01:00:58;;;;;;;5.80;4.33;;;;;;;;;;5088961;28;20432;-70
2021/05/31 01:03:24;;;;;;;5.40;3.10;;;;;;;;;;5095668;28;20459;-70
2021/05/31 01:05:50;;;;;;;5.33;4.20;;;;;;;;;;5078772;28;20934;-70
2021/05/31 01:08:21;;;;;;;5.80;4.03;;;;;;;;;;5082911;28;20472;-70
2021/05/31 01:10:49;;;;;;;7.83;4.13;;;;;;;;;;5078772;28;20428;-71
2021/05/31 01:13:34;;;;;;;7.50;4.60;;;;;;;;;;5085575;28;20458;-71
2021/05/31 01:16:05;;;;;;;5.77;3.83;;;;;;;;;;5081142;28;20581;-69
2021/05/31 01:18:41;;;;;;;8.23;4.20;;;;;;;;;;5102285;28;20439;-70
2021/05/31 01:21:16;;;;;;;4.50;3.57;;;;;;;;;;5080900;28;20440;-70
2021/05/31 01:23:45;;;;;;;6.00;3.97;;;;;;;;;;5080632;28;20451;-71
2021/05/31 01:26:16;;;;;;;5.37;4.30;;;;;;;;;;5091898;28;20432;-70
2021/05/31 01:28:58;;;;;;;5.10;3.53;;;;;;;;;;5085440;28;20559;-70
2021/05/31 01:31:34;;;;;;;6.90;3.43;;;;;;;;;;5073387;28;20457;-70
2021/05/31 01:34:03;;;;;;;6.13;3.80;;;;;;;;;;5074782;28;20433;-71
2021/05/31 01:36:32;;;;;;;5.97;4.27;;;;;;;;;;5084184;28;20527;-70
2021/05/31 01:38:59;;;;;;;5.60;4.00;;;;;;;;;;5085475;28;20451;-71
2021/05/31 01:41:25;;;;;;;6.20;3.83;;;;;;;;;;5086168;28;21038;-70
2021/05/31 01:43:52;;;;;;;5.37;3.53;;;;;;;;;;5084759;28;20428;-70
2021/05/31 01:46:19;;;;;;;10.13;4.20;;;;;;;;;;5083609;28;20433;-70
2021/05/31 01:48:46;;;;;;;5.43;3.53;;;;;;;;;;5082463;28;20505;-70
2021/05/31 01:51:13;;;;;;;6.83;4.83;;;;;;;;;;5082801;28;20447;-70
2021/05/31 01:53:40;;;;;;;5.33;3.70;;;;;;;;;;5083918;28;20452;-69
2021/05/31 01:56:06;;;;;;;10.23;4.10;;;;;;;;;;5072760;28;20544;-70
2021/05/31 01:58:32;;;;;;;5.13;3.47;;;;;;;;;;5076608;28;20436;-70
2021/05/31 02:00:59;;;;;;;7.67;4.30;;;;;;;;;;5084884;28;20437;-69
2021/05/31 02:03:25;;;;;;;5.40;4.10;;;;;;;;;;5080553;28;20431;-69
2021/05/31 02:05:51;;;;;;;9.97;3.80;;;;;;;;;;5082901;28;20467;-70
2021/05/31 02:08:17;;;;;;;4.30;3.90;;;;;;;;;;5082787;28;20467;-70
2021/05/31 02:10:43;;;;;;;6.00;4.03;;;;;;;;;;5080247;28;20793;-70
2021/05/31 02:13:12;;;;;;;5.37;3.90;;;;;;;;;;5082606;28;20950;-69
2021/05/31 02:15:41;;;;;;;6.27;3.97;;;;;;;;;;5080278;28;20439;-71
2021/05/31 02:18:11;;;;;;;6.97;4.47;;;;;;;;;;5087486;28;20439;-70
2021/05/31 02:20:38;;;;;;;6.10;4.30;;;;;;;;;;5077637;28;21110;-70
2021/05/31 02:23:05;;;;;;;7.53;4.10;;;;;;;;;;5079440;28;20461;-70
2021/05/31 02:25:32;;;;;;;6.03;4.83;;;;;;;;;;5079888;28;20447;-70
2021/05/31 02:27:58;;;;;;;6.47;4.50;;;;;;;;;;5078787;28;20476;-70
2021/05/31 02:30:25;;;;;;;4.13;3.27;;;;;;;;;;5081725;28;20463;-70
2021/05/31 02:32:51;;;;;;;6.30;4.50;;;;;;;;;;5092141;28;20464;-70
2021/05/31 02:35:17;;;;;;;6.53;4.90;;;;;;;;;;5083655;28;20428;-70
2021/05/31 02:37:43;;;;;;;5.47;3.97;;;;;;;;;;5079291;28;20449;-70
2021/05/31 02:40:10;;;;;;;4.40;3.30;;;;;;;;;;5090500;28;20447;-70
2021/05/31 02:42:40;;;;;;;8.30;5.07;;;;;;;;;;5079485;28;20527;-70
2021/05/31 02:45:06;;;;;;;7.60;3.93;;;;;;;;;;5083239;28;20440;-70
2021/05/31 02:47:32;;;;;;;5.57;3.77;;;;;;;;;;5094731;28;21116;-71
2021/05/31 02:49:58;;;;;;;6.97;3.97;;;;;;;;;;5093530;28;20519;-70
2021/05/31 02:52:24;;;;;;;8.70;5.30;;;;;;;;;;5080216;28;20453;-71
2021/05/31 02:54:50;;;;;;;5.03;4.07;;;;;;;;;;5078901;28;20435;-70
2021/05/31 02:57:16;;;;;;;5.83;4.40;;;;;;;;;;5094652;28;20815;-70
2021/05/31 02:59:42;;;;;;;9.40;4.73;;;;;;;;;;5078283;28;20429;-70
2021/05/31 03:02:08;;;;;;;8.10;4.83;;;;;;;;;;5085682;28;21049;-70
2021/05/31 03:04:34;;;;;;;10.13;5.97;;;;;;;;;;5083540;28;20464;-69
2021/05/31 03:07:00;;;;;;;6.30;4.17;;;;;;;;;;5078991;28;21196;-69
2021/05/31 03:09:26;;;;;;;4.90;4.40;;;;;;;;;;5072254;28;20444;-70
2021/05/31 03:11:52;;;;;;;9.13;4.30;;;;;;;;;;5097984;27;21185;-71
2021/05/31 03:14:18;;;;;;;12.57;4.27;;;;;;;;;;5098460;28;20954;-70
2021/05/31 03:16:44;;;;;;;7.57;4.00;;;;;;;;;;5071917;28;20436;-70
2021/05/31 03:19:10;;;;;;;6.43;4.77;;;;;;;;;;5074378;28;20433;-71
2021/05/31 03:21:36;;;;;;;5.63;3.70;;;;;;;;;;5080539;28;20965;-70
2021/05/31 03:24:02;;;;;;;6.90;4.17;;;;;;;;;;5076235;28;20456;-70
2021/05/31 03:26:28;;;;;;;7.87;4.43;;;;;;;;;;5094281;28;20436;-71
2021/05/31 03:28:54;;;;;;;7.70;4.43;;;;;;;;;;5074009;28;20465;-70
2021/05/31 03:31:20;;;;;;;10.43;4.77;;;;;;;;;;5081237;28;20452;-70
2021/05/31 03:33:46;;;;;;;10.50;4.27;;;;;;;;;;5079234;28;20437;-71
2021/05/31 03:36:12;;;;;;;9.93;4.90;;;;;;;;;;5073931;28;20531;-70
2021/05/31 03:38:39;;;;;;;5.00;3.23;;;;;;;;;;5079253;28;20813;-71
2021/05/31 03:41:05;;;;;;;8.33;4.33;;;;;;;;;;5077074;28;20448;-71
2021/05/31 03:43:31;;;;;;;5.40;3.90;;;;;;;;;;5101860;28;20436;-70
2021/05/31 03:45:57;;;;;;;7.60;5.40;;;;;;;;;;5071511;28;20432;-70
2021/05/31 03:48:22;;;;;;;7.33;4.73;;;;;;;;;;5085953;28;20788;-70
2021/05/31 03:50:49;;;;;;;7.67;5.07;;;;;;;;;;5080701;28;20436;-70
2021/05/31 03:53:15;;;;;;;8.63;5.40;;;;;;;;;;5076990;28;20457;-70
2021/05/31 03:55:41;;;;;;;7.87;5.43;;;;;;;;;;5090304;28;20446;-70
2021/05/31 03:58:08;;;;;;;8.20;4.73;;;;;;;;;;5075498;28;20440;-69
2021/05/31 04:00:34;;;;;;;5.80;4.33;;;;;;;;;;5077301;28;20457;-69
2021/05/31 04:03:00;;;;;;;7.90;3.93;;;;;;;;;;5077132;28;20452;-70
2021/05/31 04:05:30;;;;;;;5.90;4.53;;;;;;;;;;5082499;28;20558;-70
2021/05/31 04:11:41;;;;;;;5.80;4.20;;;;;;;;;;5082313;28;20416;-70
2021/05/31 04:13:36;;;;;;;9.03;4.70;;;;;;;;;;5066674;28;20436;-69
2021/05/31 04:16:03;;;;;;;4.73;3.43;;;;;;;;;;5078067;28;20436;-70
2021/05/31 04:18:29;;;;;;;6.17;3.70;;;;;;;;;;5077196;28;20460;-70
2021/05/31 04:20:55;;;;;;;8.70;4.40;;;;;;;;;;5080334;28;20483;-70
2021/05/31 04:23:21;;;;;;;6.97;4.53;;;;;;;;;;5082087;28;20966;-70
2021/05/31 04:25:47;;;;;;;5.37;3.60;;;;;;;;;;5089188;28;20439;-70
2021/05/31 04:28:13;;;;;;;5.00;3.40;;;;;;;;;;5071193;28;20943;-70
2021/05/31 04:30:39;;;;;;;5.13;3.30;;;;;;;;;;5088614;28;21136;-70
2021/05/31 04:33:05;;;;;;;5.97;4.00;;;;;;;;;;5077536;28;20453;-70
2021/05/31 04:35:31;;;;;;;5.27;4.20;;;;;;;;;;5079998;28;20802;-71
2021/05/31 04:37:57;;;;;;;5.73;3.53;;;;;;;;;;5092266;28;20439;-70
2021/05/31 04:40:23;;;;;;;6.50;4.00;;;;;;;;;;5078479;28;20441;-70
2021/05/31 04:42:49;;;;;;;7.67;3.90;;;;;;;;;;5073954;28;20460;-70
2021/05/31 04:45:15;;;;;;;6.40;3.67;;;;;;;;;;5071904;28;20450;-70
2021/05/31 04:47:41;;;;;;;4.20;3.37;;;;;;;;;;5084685;28;20460;-70
2021/05/31 04:50:07;;;;;;;5.63;3.83;;;;;;;;;;5073964;28;20440;-70
2021/05/31 04:52:33;;;;;;;3.43;2.30;;;;;;;;;;5075934;28;20462;-70
2021/05/31 04:54:59;;;;;;;9.23;3.60;;;;;;;;;;5081408;28;20919;-69
2021/05/31 04:57:25;;;;;;;5.87;3.50;;;;;;;;;;5077143;28;21017;-70
2021/05/31 04:59:51;;;;;;;4.27;3.60;;;;;;;;;;5073351;28;20436;-70
2021/05/31 05:02:17;;;;;;;4.80;3.40;;;;;;;;;;5081355;28;20465;-70
2021/05/31 05:04:43;;;;;;;7.00;3.90;;;;;;;;;;5079653;28;20884;-69
2021/05/31 05:07:12;;;;;;;3.43;3.13;;;;;;;;;;5082152;28;21058;-70
2021/05/31 05:09:39;;;;;;;7.10;3.40;;;;;;;;;;5104643;28;20910;-69
2021/05/31 05:12:05;;;;;;;7.10;4.60;;;;;;;;;;5095453;28;20460;-70
2021/05/31 05:14:31;;;;;;;5.20;3.80;;;;;;;;;;5086461;28;20437;-70
2021/05/31 05:17:01;;;;;;;4.70;3.20;;;;;;;;;;5090357;28;20515;-71
2021/05/31 05:19:27;;;;;;;5.20;4.00;;;;;;;;;;5085556;28;20531;-71
2021/05/31 05:21:54;;;;;;;4.80;3.13;;;;;;;;;;5084475;28;20539;-71
2021/05/31 05:24:20;;;;;;;5.33;4.20;;;;;;;;;;5090692;28;20545;-71
2021/05/31 05:26:46;;;;;;;5.07;3.83;;;;;;;;;;5098316;28;20934;-70
2021/05/31 05:29:12;;;;;;;6.97;3.50;;;;;;;;;;5087555;28;20467;-71
2021/05/31 05:31:39;;;;;;;6.93;4.40;;;;;;;;;;5089413;28;20491;-71
2021/05/31 05:34:06;;;;;;;7.20;4.10;;;;;;;;;;5091060;28;20438;-71
2021/05/31 05:36:53;;;;;;;8.87;5.53;;;;;;;;;;5086121;28;20658;-71
2021/05/31 05:42:18;;;;;;;8.60;4.60;;;;;;;;;;5085295;28;20456;-71
2021/05/31 05:49:48;;;;;;;9.37;4.00;;;;;;;;;;5083969;28;20531;-71
2021/05/31 05:52:14;;;;;;;6.93;4.47;;;;;;;;;;5099266;28;20453;-70
2021/05/31 05:54:41;;;;;;;7.83;4.87;;;;;;;;;;5081013;28;20428;-71
2021/05/31 05:57:07;;;;;;;7.50;5.00;;;;;;;;;;5084991;28;20738;-71
2021/05/31 05:59:33;;;;;;;10.43;5.53;;;;;;;;;;5102715;27;20437;-70
2021/05/31 06:01:59;;;;;;;8.50;5.13;;;;;;;;;;5091303;28;20452;-71
2021/05/31 06:04:25;;;;;;;9.33;5.27;;;;;;;;;;5090281;28;20519;-71
2021/05/31 06:06:51;;;;;;;8.93;5.73;;;;;;;;;;5107958;28;20500;-71
2021/05/31 06:09:18;;;;;;;6.77;4.97;;;;;;;;;;5088648;28;20525;-71
2021/05/31 06:11:44;;;;;;;10.53;7.43;;;;;;;;;;5084524;28;20453;-71
2021/05/31 06:14:11;;;;;;;8.33;5.67;;;;;;;;;;5105316;28;20460;-70
2021/05/31 06:16:38;;;;;;;10.60;6.37;;;;;;;;;;5082375;28;20434;-71
2021/05/31 06:19:04;;;;;;;7.90;5.60;;;;;;;;;;5085575;28;20531;-71
2021/05/31 06:21:30;;;;;;;9.43;5.80;;;;;;;;;;5105275;28;20503;-71
2021/05/31 06:23:56;;;;;;;7.17;4.77;;;;;;;;;;5087257;28;20505;-70
2021/05/31 06:26:22;;;;;;;8.60;5.40;;;;;;;;;;5086664;28;20962;-71
2021/05/31 06:28:48;;;;;;;9.23;5.13;;;;;;;;;;5088403;28;20567;-70
2021/05/31 06:31:15;;;;;;;7.03;4.93;;;;;;;;;;5087743;28;20520;-69
2021/05/31 06:33:41;;;;;;;7.27;4.80;;;;;;;;;;5086189;28;20486;-70
2021/05/31 06:36:09;;;;;;;6.90;4.33;;;;;;;;;;5097809;28;20436;-71
2021/05/31 06:38:35;;;;;;;9.77;6.10;;;;;;;;;;5092790;28;20448;-70
2021/05/31 06:41:04;;;;;;;10.27;5.67;;;;;;;;;;5088140;28;20432;-69
2021/05/31 06:43:31;;;;;;;10.20;5.67;;;;;;;;;;5081099;28;20448;-70
2021/05/31 06:45:59;;;;;;;7.93;4.70;;;;;;;;;;5101661;27;20950;-70
2021/05/31 06:48:25;;;;;;;8.80;5.07;;;;;;;;;;5087186;28;20694;-70
2021/05/31 06:50:53;;;;;;;7.23;5.03;;;;;;;;;;5102602;28;20483;-70
2021/05/31 06:53:19;;;;;;;7.77;5.73;;;;;;;;;;5088152;28;20453;-71
2021/05/31 06:55:45;;;;;;;8.80;5.50;;;;;;;;;;5086774;28;20925;-71
2021/05/31 06:58:11;;;;;;;6.70;4.67;;;;;;;;;;5087079;28;20437;-70
2021/05/31 07:00:37;;;;;;;11.90;5.80;;;;;;;;;;5075974;28;20444;-70
2021/05/31 07:03:03;;;;;;;9.40;4.97;;;;;;;;;;5086126;28;20517;-71
2021/05/31 07:05:29;;;;;;;12.03;7.83;;;;;;;;;;5083064;28;20922;-70
2021/05/31 07:07:56;;;;;;;8.80;6.20;;;;;;;;;;5106294;28;21038;-70
2021/05/31 07:10:29;;;;;;;9.87;6.00;;;;;;;;;;5087690;28;20427;-70
2021/05/31 07:12:55;;;;;;;8.67;6.00;;;;;;;;;;5069597;28;20484;-69
2021/05/31 07:15:22;;;;;;;8.73;5.33;;;;;;;;;;5089531;28;20515;-70
2021/05/31 07:17:48;;;;;;;7.77;5.60;;;;;;;;;;5097176;27;20447;-71
2021/05/31 07:20:15;;;;;;;8.87;5.37;;;;;;;;;;5096639;28;20783;-71
2021/05/31 07:22:43;;;;;;;7.27;5.27;;;;;;;;;;5100595;28;20452;-71
2021/05/31 07:25:09;;;;;;;9.73;5.23;;;;;;;;;;5102568;28;20440;-71
2021/05/31 07:27:36;;;;;;;7.50;5.17;;;;;;;;;;5100695;28;20506;-70
2021/05/31 07:30:03;;;;;;;8.10;4.57;;;;;;;;;;5099587;28;20527;-71
2021/05/31 07:32:29;;;;;;;8.50;5.43;;;;;;;;;;5086868;28;20501;-71
2021/05/31 07:34:55;;;;;;;11.37;5.90;;;;;;;;;;5096003;28;20433;-70
2021/05/31 07:37:21;;;;;;;9.00;5.60;;;;;;;;;;5085422;28;20515;-71
2021/05/31 07:39:47;;;;;;;8.47;5.10;;;;;;;;;;5085370;28;20428;-71
2021/05/31 07:42:13;;;;;;;7.07;5.27;;;;;;;;;;5102227;28;20488;-71
2021/05/31 07:44:39;;;;;;;7.27;4.87;;;;;;;;;;5086886;28;20435;-70
2021/05/31 07:47:05;;;;;;;9.47;5.63;;;;;;;;;;5089675;28;20416;-70
2021/05/31 07:49:31;;;;;;;8.03;5.63;;;;;;;;;;5103300;28;20452;-71
2021/05/31 07:52:06;;;;;;;6.57;4.20;;;;;;;;;;5082955;28;20505;-71
2021/05/31 07:54:32;;;;;;;6.23;4.50;;;;;;;;;;5088574;28;20450;-70
2021/05/31 07:56:59;;;;;;;6.03;4.30;;;;;;;;;;5099081;28;20838;-71
2021/05/31 07:59:25;;;;;;;8.03;4.93;;;;;;;;;;5087703;28;20436;-69
2021/05/31 08:01:52;;;;;;;5.13;4.50;;;;;;;;;;5079320;28;20468;-71
2021/05/31 08:04:17;;;;;;;10.03;5.50;;;;;;;;;;5081209;28;20479;-70
2021/05/31 08:06:43;;;;;;;5.90;4.47;;;;;;;;;;5086075;28;20424;-70
2021/05/31 08:09:10;;;;;;;6.80;4.63;;;;;;;;;;5084896;28;20546;-70
2021/05/31 08:11:36;;;;;;;8.40;4.43;;;;;;;;;;5104967;28;20449;-70
2021/05/31 08:14:02;;;;;;;8.37;4.83;;;;;;;;;;5087198;28;20524;-71
2021/05/31 08:16:29;;;;;;;7.73;4.80;;;;;;;;;;5087291;28;21248;-71
2021/05/31 08:18:56;;;;;;;9.70;5.00;;;;;;;;;;5087521;28;20432;-71
2021/05/31 08:21:22;;;;;;;8.73;4.73;;;;;;;;;;5081491;28;20452;-70
2021/05/31 08:23:48;;;;;;;4.87;3.70;;;;;;;;;;5086020;28;20451;-71
2021/05/31 08:26:19;;;;;;;5.90;4.87;;;;;;;;;;5085682;28;20440;-71
2021/05/31 08:28:46;;;;;;;6.07;4.13;;;;;;;;;;5087824;28;20463;-70
2021/05/31 08:31:12;;;;;;;6.50;3.67;;;;;;;;;;5094127;28;20432;-71
2021/05/31 08:33:38;;;;;;;7.07;3.50;;;;;;;;;;5087592;28;20412;-71
2021/05/31 08:36:04;;;;;;;6.93;4.43;;;;;;;;;;5095475;28;20793;-71
2021/05/31 08:38:32;;;;;;;7.57;4.07;;;;;;;;;;5098285;28;20422;-71
2021/05/31 08:40:58;;;;;;;7.40;5.20;;;;;;;;;;5090269;28;20411;-71
2021/05/31 08:43:23;;;;;;;9.80;4.07;;;;;;;;;;5090419;28;20490;-71
2021/05/31 08:45:49;;;;;;;4.90;3.70;;;;;;;;;;5106438;28;20464;-71
2021/05/31 08:48:17;;;;;;;8.00;4.40;;;;;;;;;;5089500;28;20460;-71
2021/05/31 08:50:43;;;;;;;5.60;3.60;;;;;;;;;;5088432;28;20867;-71
2021/05/31 08:53:09;;;;;;;7.50;3.60;;;;;;;;;;5085805;28;20502;-71
2021/05/31 08:55:38;;;;;;;8.70;4.93;;;;;;;;;;5074649;28;20449;-71
2021/05/31 08:58:04;;;;;;;7.20;4.47;;;;;;;;;;5088479;28;20449;-70
2021/05/31 09:00:31;;;;;;;7.23;4.50;;;;;;;;;;5079657;28;20413;-71
2021/05/31 09:03:02;;;;;;;4.40;3.20;;;;;;;;;;5091439;28;21008;-71
2021/05/31 09:05:33;;;;;;;4.93;3.83;;;;;;;;;;5090404;28;20499;-71
2021/05/31 09:08:02;;;;;;;3.90;3.10;;;;;;;;;;5088642;28;20508;-70
2021/05/31 09:10:33;;;;;;;8.63;3.70;;;;;;;;;;5086752;28;20532;-71
2021/05/31 09:12:59;;;;;;;6.20;4.83;;;;;;;;;;5092226;28;20459;-70
2021/05/31 09:15:25;;;;;;;5.80;3.43;;;;;;;;;;5089486;28;20439;-71
2021/05/31 09:17:51;;;;;;;5.87;3.97;;;;;;;;;;5078998;28;20470;-71
2021/05/31 09:20:17;;;;;;;4.83;3.83;;;;;;;;;;5074971;28;20479;-70
2021/05/31 09:22:51;;;;;;;5.77;3.60;;;;;;;;;;5071357;28;20515;-71
2021/05/31 09:25:34;;;;;;;5.20;3.07;;;;;;;;;;5075560;28;20444;-70
2021/05/31 09:28:05;;;;;;;4.00;2.97;;;;;;;;;;5078092;28;21102;-70
2021/05/31 09:30:31;;;;;;;3.70;3.23;;;;;;;;;;5077923;28;20456;-70
2021/05/31 09:32:58;;;;;;;3.70;2.93;;;;;;;;;;5072084;28;20483;-70
2021/05/31 09:35:24;;;;;;;4.17;2.63;;;;;;;;;;5072182;28;20456;-70
2021/05/31 09:37:51;;;;;;;3.83;3.20;;;;;;;;;;5066991;28;20445;-70
2021/05/31 09:40:18;;;;;;;2.63;2.43;;;;;;;;;;5064514;28;20521;-70
2021/05/31 09:42:51;;;;;;;4.43;2.80;;;;;;;;;;5069521;28;20510;-70
2021/05/31 09:45:18;;;;;;;2.80;2.20;;;;;;;;;;5079316;28;20472;-71
2021/05/31 09:47:44;;;;;;;3.87;2.50;;;;;;;;;;5068329;28;20475;-71
2021/05/31 09:50:11;;;;;;;3.50;2.17;;;;;;;;;;5084898;27;20555;-71
2021/05/31 09:52:38;;;;;;;4.40;2.70;;;;;;;;;;5071870;28;20459;-71
2021/05/31 09:55:09;;;;;;;3.27;2.50;;;;;;;;;;5069305;28;20436;-71
2021/05/31 09:57:36;;;;;;;2.40;1.87;;;;;;;;;;5079782;28;20531;-71
2021/05/31 10:00:14;;;;;;;5.00;2.60;;;;;;;;;;5094344;28;20435;-71
2021/05/31 10:10:24;;;;;;;2.73;1.97;;;;;;;;;;5091347;28;20404;-72
2021/05/31 10:12:50;;;;;;;2.50;2.30;;;;;;;;;;5091790;28;20429;-71
2021/05/31 10:15:27;;;;;;;3.13;2.20;;;;;;;;;;5104640;27;20424;-72
2021/05/31 10:17:54;;;;;;;2.60;2.03;;;;;;;;;;5094775;28;20835;-72
2021/05/31 10:20:21;;;;;;;2.30;2.10;;;;;;;;;;5090822;28;20544;-72
2021/05/31 10:22:47;;;;;;;3.20;2.60;;;;;;;;;;5107043;28;20437;-72
2021/05/31 10:25:15;;;;;;;7.27;2.23;;;;;;;;;;5091016;28;20432;-72
2021/05/31 10:27:42;;;;;;;2.20;2.00;;;;;;;;;;5091587;28;20460;-72
2021/05/31 10:30:08;;;;;;;4.03;2.80;;;;;;;;;;5090092;28;20427;-71
2021/05/31 10:32:35;;;;;;;3.37;2.37;;;;;;;;;;5091753;28;20486;-71
2021/05/31 10:35:01;;;;;;;2.97;2.03;;;;;;;;;;5096114;28;20489;-71
2021/05/31 10:37:28;;;;;;;5.13;2.10;;;;;;;;;;5073664;28;20485;-72
2021/05/31 10:40:02;;;;;;;5.10;2.80;;;;;;;;;;5080049;28;20822;-73
2021/05/31 10:42:45;;;;;;;3.43;2.20;;;;;;;;;;5068579;28;20470;-73
2021/05/31 10:45:20;;;;;;;3.63;2.77;;;;;;;;;;5079767;28;21068;-73
2021/05/31 10:47:57;;;;;;;3.13;2.67;;;;;;;;;;5103166;28;20456;-72
2021/05/31 10:50:43;;;;;;;4.80;2.23;;;;;;;;;;5068954;28;21263;-73
2021/05/31 10:53:37;;;;;;;1.97;1.73;;;;;;;;;;5080659;28;20455;-72
2021/05/31 10:56:10;;;;;;;3.72;2.50;;;;;;;;;;5109939;27;20434;-73
2021/05/31 10:58:38;;;;;;;5.03;2.30;;;;;;;;;;5084408;27;20266;-76
2021/05/31 11:01:04;;;;;;;1.93;1.53;;;;;;;;;;5079355;28;20478;-74
2021/05/31 11:03:31;;;;;;;1.83;1.43;;;;;;;;;;5079911;28;20953;-74
2021/05/31 11:05:58;;;;;;;3.60;1.70;;;;;;;;;;5077447;28;20474;-74
2021/05/31 11:08:28;;;;;;;1.77;1.67;;;;;;;;;;5072867;28;20464;-74
2021/05/31 11:10:55;;;;;;;2.60;2.07;;;;;;;;;;5083233;28;20499;-74
2021/05/31 11:13:21;;;;;;;1.60;1.50;;;;;;;;;;5095983;27;20499;-75
2021/05/31 11:15:59;;;;;;;3.73;1.87;;;;;;;;;;5085067;28;20487;-74
2021/05/31 11:18:32;;;;;;;2.40;1.57;;;;;;;;;;5080459;28;20821;-75
2021/05/31 11:20:58;;;;;;;1.63;1.53;;;;;;;;;;5082869;28;20440;-75
2021/05/31 11:23:24;;;;;;;1.97;1.73;;;;;;;;;;5096891;28;20471;-74
2021/05/31 11:25:50;;;;;;;1.80;1.53;;;;;;;;;;5098616;27;20470;-74
2021/05/31 11:28:17;;;;;;;3.33;1.83;;;;;;;;;;5087650;28;21033;-74
2021/05/31 11:30:43;;;;;;;3.17;1.67;;;;;;;;;;5082057;28;21132;-75
2021/05/31 11:33:13;;;;;;;1.43;1.33;;;;;;;;;;5095308;27;20544;-75
2021/05/31 11:35:39;;;;;;;1.87;1.77;;;;;;;;;;5096931;27;20810;-74
2021/05/31 11:38:06;;;;;;;3.20;1.27;;;;;;;;;;5076075;28;20451;-74
2021/05/31 11:40:36;;;;;;;1.20;1.10;;;;;;;;;;5073773;28;20461;-74
2021/05/31 11:43:03;;;;;;;1.20;1.10;;;;;;;;;;5084610;28;20456;-74
2021/05/31 11:45:35;;;;;;;1.50;1.40;;;;;;;;;;5088298;28;20428;-74
2021/05/31 11:48:03;;;;;;;3.73;1.00;;;;;;;;;;5086774;28;20540;-74
2021/05/31 11:50:30;;;;;;;2.73;1.50;;;;;;;;;;5086553;28;20452;-74
2021/05/31 11:52:56;;;;;;;1.63;1.53;;;;;;;;;;5083775;28;20472;-75
2021/05/31 11:55:27;;;;;;;1.53;1.40;;;;;;;;;;5098628;27;20468;-75
2021/05/31 11:57:53;;;;;;;1.03;1.00;;;;;;;;;;5086403;28;20442;-74
2021/05/31 12:00:21;;;;;;;1.07;0.97;;;;;;;;;;5084778;28;20433;-74
2021/05/31 12:02:47;;;;;;;2.17;1.50;;;;;;;;;;5101638;28;20539;-74
2021/05/31 12:05:14;;;;;;;1.10;1.00;;;;;;;;;;5085255;28;20508;-74
2021/05/31 12:07:43;;;;;;;1.40;1.20;;;;;;;;;;5101297;27;20417;-73
2021/05/31 12:10:09;;;;;;;1.93;1.10;;;;;;;;;;5093148;28;20441;-74
2021/05/31 12:12:35;;;;;;;3.03;1.37;;;;;;;;;;5099129;28;20452;-74
2021/05/31 12:15:02;;;;;;;1.13;1.13;;;;;;;;;;5081235;28;20442;-74
2021/05/31 12:17:28;;;;;;;1.10;1.03;;;;;;;;;;5090665;28;20494;-74
2021/05/31 12:19:55;;;;;;;1.57;1.40;;;;;;;;;;5093623;27;20435;-74
2021/05/31 12:22:23;;;;;;;1.97;1.47;;;;;;;;;;5090877;28;20463;-74
2021/05/31 12:24:51;;;;;;;1.87;1.00;;;;;;;;;;5099087;27;20484;-74
2021/05/31 12:27:23;;;;;;;1.57;1.33;;;;;;;;;;5088817;28;20425;-74
2021/05/31 12:29:49;;;;;;;1.70;1.07;;;;;;;;;;5089987;28;20481;-75
2021/05/31 12:32:17;;;;;;;2.90;1.27;;;;;;;;;;5083247;28;20532;-74
2021/05/31 12:34:43;;;;;;;1.47;1.23;;;;;;;;;;5085889;28;20443;-75
2021/05/31 12:37:11;;;;;;;1.53;1.20;;;;;;;;;;5094737;28;20492;-75
2021/05/31 12:39:41;;;;;;;1.20;1.10;;;;;;;;;;5090170;28;20424;-75
2021/05/31 12:42:07;;;;;;;1.07;0.97;;;;;;;;;;5086685;28;20451;-75
2021/05/31 12:44:33;;;;;;;1.67;1.57;;;;;;;;;;5088185;28;20468;-75
2021/05/31 12:47:08;;;;;;;1.30;1.20;;;;;;;;;;5089442;28;20997;-75
2021/05/31 12:49:34;;;;;;;3.03;1.20;;;;;;;;;;5082712;28;20868;-75
2021/05/31 12:52:00;;;;;;;1.40;1.20;;;;;;;;;;5080827;28;20457;-75
2021/05/31 12:54:28;;;;;;;5.03;1.70;;;;;;;;;;5094316;27;20443;-75
2021/05/31 12:56:58;;;;;;;2.13;1.07;;;;;;;;;;5095854;28;21061;-75
2021/05/31 12:59:25;;;;;;;1.67;1.57;;;;;;;;;;5079888;28;20954;-75
2021/05/31 13:01:51;;;;;;;1.33;1.20;;;;;;;;;;5075320;28;20453;-75
2021/05/31 13:04:28;;;;;;;5.03;1.20;;;;;;;;;;5080239;28;20960;-75
2021/05/31 13:06:54;;;;;;;2.50;1.07;;;;;;;;;;5084002;28;20440;-75
2021/05/31 13:09:24;;;;;;;1.97;1.10;;;;;;;;;;5080063;28;20625;-75
2021/05/31 13:11:50;;;;;;;1.00;1.00;;;;;;;;;;5085688;28;21018;-74
2021/05/31 13:14:17;;;;;;;2.53;1.60;;;;;;;;;;5085183;28;20444;-75
2021/05/31 13:17:09;;;;;;;1.60;1.20;;;;;;;;;;5071558;28;20433;-74
2021/05/31 13:19:37;;;;;;;1.30;1.20;;;;;;;;;;5080823;28;21012;-75
2021/05/31 13:22:03;;;;;;;2.13;1.17;;;;;;;;;;5083551;28;20958;-76
2021/05/31 13:24:30;;;;;;;2.23;1.33;;;;;;;;;;5078814;28;20452;-75
2021/05/31 13:26:57;;;;;;;2.67;1.37;;;;;;;;;;5081720;28;20444;-75
2021/05/31 13:29:24;;;;;;;1.70;1.13;;;;;;;;;;5095631;27;20594;-74
2021/05/31 13:31:51;;;;;;;1.77;1.43;;;;;;;;;;5086784;28;20531;-74
2021/05/31 13:34:17;;;;;;;1.30;1.20;;;;;;;;;;5089294;28;20420;-74
2021/05/31 13:36:43;;;;;;;1.47;1.37;;;;;;;;;;5079213;28;20487;-75
2021/05/31 13:39:12;;;;;;;2.10;1.30;;;;;;;;;;5078597;28;20437;-75
2021/05/31 13:41:39;;;;;;;1.37;1.00;;;;;;;;;;5077339;28;20471;-76
2021/05/31 13:44:32;;;;;;;1.50;1.40;;;;;;;;;;5082235;28;20428;-76
2021/05/31 13:46:58;;;;;;;1.10;1.00;;;;;;;;;;5079254;28;20468;-76
2021/05/31 13:49:24;;;;;;;2.03;1.17;;;;;;;;;;5075279;28;20464;-76
2021/05/31 13:51:51;;;;;;;2.80;1.30;;;;;;;;;;5066642;28;20448;-77
2021/05/31 13:54:19;;;;;;;0.90;0.90;;;;;;;;;;5080856;28;20429;-76
2021/05/31 13:56:45;;;;;;;2.83;1.20;;;;;;;;;;5089396;27;20474;-75
2021/05/31 13:59:11;;;;;;;1.33;1.00;;;;;;;;;;5075294;28;20440;-74
2021/05/31 14:01:38;;;;;;;2.43;1.90;;;;;;;;;;5086223;28;20459;-75
2021/05/31 14:04:04;;;;;;;2.30;1.20;;;;;;;;;;5080530;28;20535;-75
2021/05/31 14:06:30;;;;;;;1.60;1.50;;;;;;;;;;5078318;28;20934;-75
2021/05/31 14:08:59;;;;;;;1.27;1.17;;;;;;;;;;5086992;28;20478;-75
2021/05/31 14:11:25;;;;;;;1.03;1.00;;;;;;;;;;5063793;28;20469;-74
2021/05/31 14:13:51;;;;;;;3.13;2.40;;;;;;;;;;5094026;28;20429;-76
2021/05/31 14:16:17;;;;;;;2.20;1.17;;;;;;;;;;5084516;28;20445;-77
2021/05/31 14:18:43;;;;;;;1.33;1.23;;;;;;;;;;5072564;28;20437;-74
2021/05/31 14:21:09;;;;;;;1.17;1.17;;;;;;;;;;5074757;28;20966;-74
2021/05/31 14:23:36;;;;;;;1.73;1.30;;;;;;;;;;5078002;28;20486;-74
2021/05/31 14:26:02;;;;;;;1.50;1.40;;;;;;;;;;5079243;28;20448;-73
2021/05/31 14:28:28;;;;;;;1.30;1.20;;;;;;;;;;5074584;28;20502;-73
2021/05/31 14:30:54;;;;;;;1.90;1.00;;;;;;;;;;5073168;28;20452;-73
2021/05/31 14:33:20;;;;;;;1.53;1.43;;;;;;;;;;5081003;28;20547;-74
2021/05/31 14:35:46;;;;;;;2.03;1.53;;;;;;;;;;5090654;27;20497;-73
2021/05/31 14:38:12;;;;;;;1.33;1.13;;;;;;;;;;5070463;28;20457;-73
2021/05/31 14:40:38;;;;;;;1.07;1.07;;;;;;;;;;5071996;28;20646;-73
2021/05/31 14:43:04;;;;;;;2.80;1.50;;;;;;;;;;5077449;28;20543;-74
2021/05/31 14:45:34;;;;;;;2.33;1.60;;;;;;;;;;5077970;28;20433;-75
2021/05/31 14:48:04;;;;;;;1.90;1.53;;;;;;;;;;5080199;28;20460;-74
2021/05/31 14:50:30;;;;;;;1.33;1.23;;;;;;;;;;5086138;28;20955;-74
2021/05/31 14:52:56;;;;;;;1.20;1.10;;;;;;;;;;5076944;28;20479;-75
2021/05/31 14:55:22;;;;;;;0.80;0.80;;;;;;;;;;5079358;28;20436;-74
2021/05/31 14:57:50;;;;;;;1.40;1.20;;;;;;;;;;5082161;28;20432;-74
2021/05/31 15:00:17;;;;;;;1.07;1.07;;;;;;;;;;5075957;28;20436;-75
2021/05/31 15:02:44;;;;;;;0.80;0.80;;;;;;;;;;5082908;28;20457;-74
2021/05/31 15:05:11;;;;;;;1.27;1.17;;;;;;;;;;5076795;28;20436;-73